Terminal Aerodrome Forecast
Issued by NWS Shreveport, LA

Current Version | Previous Version | Text Only | Print | Product List | Glossary On
Versions: 1 2 3 4 5 6 7 8 9 10 11 12 13 14 15 16 17 18 19 20 21 22 23 24
000
FTUS44 KSHV 201446 AAA
TAFGGG
TAF AMD
KGGG 201446Z 2015/2112 VRB05KT 6SM -SHRA BR OVC008
      TEMPO 2015/2018 4SM SHRA BR OVC040
     FM201800 VRB06KT 5SM -SHRA BR OVC015
     FM210000 31009KT P6SM VCSH BKN030=

USA.gov is the U.S. government's official web portal to all federal, state and local government web resources and services.